createdAt,value
2023-05-08T00:00:05.911Z,2.40
2023-05-08T00:01:09.079Z,1.90
2023-05-08T00:02:12.316Z,2.17
2023-05-08T00:03:15.656Z,2.72
2023-05-08T00:04:21.411Z,1.77
2023-05-08T00:05:25.205Z,2.72
2023-05-08T00:06:28.802Z,2.40
2023-05-08T00:07:32.341Z,2.20
2023-05-08T00:08:35.600Z,1.80
2023-05-08T00:09:39.058Z,2.15
2023-05-08T00:10:42.276Z,2.05
2023-05-08T00:11:46.011Z,2.30
2023-05-08T00:12:49.444Z,2.58
2023-05-08T00:13:52.437Z,2.65
2023-05-08T00:14:55.495Z,2.35
2023-05-08T00:15:59.300Z,2.25
2023-05-08T00:17:03.249Z,2.08
2023-05-08T00:18:06.553Z,2.42
2023-05-08T00:19:09.814Z,2.42
2023-05-08T00:20:13.756Z,2.70
2023-05-08T00:21:17.562Z,2.60
2023-05-08T00:22:21.117Z,2.55
2023-05-08T00:23:24.816Z,2.15
2023-05-08T00:24:28.236Z,2.33
2023-05-08T00:25:32.554Z,2.63
2023-05-08T00:26:36.125Z,2.55
2023-05-08T00:27:40.016Z,2.15
2023-05-08T00:28:43.622Z,2.42
2023-05-08T00:29:47.369Z,2.47
2023-05-08T00:30:50.992Z,2.20
2023-05-08T00:31:54.382Z,2.50
2023-05-08T00:32:57.819Z,2.30
2023-05-08T00:34:01.263Z,2.20
2023-05-08T00:35:05.058Z,2.28
2023-05-08T00:36:08.850Z,2.10
2023-05-08T00:37:11.972Z,2.25
2023-05-08T00:38:15.358Z,2.40
2023-05-08T00:39:18.440Z,2.25
2023-05-08T00:40:22.518Z,1.90
2023-05-08T00:41:25.650Z,2.40
2023-05-08T00:42:29.234Z,2.88
2023-05-08T00:43:32.569Z,2.25
2023-05-08T00:44:35.772Z,2.13
2023-05-08T00:45:40.763Z,2.60
2023-05-08T00:46:44.324Z,2.20
2023-05-08T00:47:48.219Z,2.33
2023-05-08T00:48:51.655Z,2.42
2023-05-08T00:49:54.908Z,2.25
2023-05-08T00:50:58.559Z,2.30
2023-05-08T00:52:01.630Z,2.00
2023-05-08T00:53:05.550Z,2.00
2023-05-08T00:54:08.656Z,2.13
2023-05-08T00:55:11.820Z,1.48
2023-05-08T00:56:16.259Z,1.98
2023-05-08T00:57:20.135Z,2.22
2023-05-08T00:58:23.702Z,2.35
2023-05-08T00:59:27.270Z,2.10
2023-05-08T01:00:30.262Z,2.15
2023-05-08T01:01:34.105Z,2.20
2023-05-08T01:02:37.759Z,1.88
2023-05-08T01:03:41.635Z,2.25
2023-05-08T01:04:45.861Z,2.25
2023-05-08T01:05:50.300Z,2.70
2023-05-08T01:06:53.991Z,2.58
2023-05-08T01:07:58.017Z,2.50
2023-05-08T01:09:02.062Z,2.83
2023-05-08T01:10:06.747Z,2.20
2023-05-08T01:11:24.747Z,2.95
2023-05-08T01:12:46.557Z,2.70
2023-05-08T01:14:16.486Z,2.40
2023-05-08T01:15:25.006Z,1.80
2023-05-08T01:16:44.244Z,1.90
2023-05-08T01:18:04.672Z,1.70
2023-05-08T01:19:35.059Z,2.08
2023-05-08T01:21:13.170Z,2.72
2023-05-08T01:22:34.438Z,2.10
2023-05-08T01:23:52.862Z,1.95
2023-05-08T01:25:11.177Z,2.42
2023-05-08T01:26:43.760Z,1.80
2023-05-08T01:28:02.268Z,2.47
2023-05-08T01:29:31.662Z,2.35
2023-05-08T01:30:47.128Z,2.28
2023-05-08T01:32:23.503Z,1.60
2023-05-08T01:33:44.976Z,2.08
2023-05-08T01:35:04.652Z,1.92
2023-05-08T01:36:17.022Z,1.85
2023-05-08T01:37:28.987Z,2.03
2023-05-08T01:38:41.764Z,2.60
2023-05-08T01:39:56.709Z,1.95
2023-05-08T01:41:08.665Z,1.95
2023-05-08T01:42:29.909Z,2.30
2023-05-08T01:44:12.251Z,1.98
2023-05-08T01:45:20.414Z,2.55
2023-05-08T01:46:28.330Z,2.17
2023-05-08T01:47:33.858Z,2.33
2023-05-08T01:48:39.434Z,2.08
2023-05-08T01:49:50.084Z,2.03
2023-05-08T01:51:06.275Z,1.95
2023-05-08T01:52:28.984Z,2.05
2023-05-08T01:53:53.741Z,2.03
2023-05-08T01:54:58.486Z,2.10
2023-05-08T01:56:06.400Z,1.55
2023-05-08T01:57:10.598Z,2.28
2023-05-08T01:58:14.094Z,1.85
2023-05-08T01:59:20.718Z,1.98
2023-05-08T02:00:24.430Z,2.35
2023-05-08T02:01:30.080Z,2.50
2023-05-08T02:02:34.042Z,2.33
2023-05-08T02:03:37.560Z,1.98
2023-05-08T02:04:42.781Z,2.40
2023-05-08T02:05:46.141Z,2.20
2023-05-08T02:06:50.057Z,2.35
2023-05-08T02:07:53.299Z,2.38
2023-05-08T02:08:56.423Z,2.25
2023-05-08T02:09:59.530Z,3.65
2023-05-08T02:11:03.972Z,2.42
2023-05-08T02:12:08.599Z,2.80
2023-05-08T02:13:12.762Z,2.45
2023-05-08T02:14:16.778Z,2.60
2023-05-08T02:15:24.008Z,2.80
2023-05-08T02:16:28.216Z,2.67
2023-05-08T02:17:32.451Z,2.85
2023-05-08T02:18:36.118Z,2.80
2023-05-08T02:19:41.190Z,2.38
2023-05-08T02:20:44.728Z,2.28
2023-05-08T02:21:48.147Z,2.88
2023-05-08T02:22:51.994Z,2.53
2023-05-08T02:23:57.337Z,2.92
2023-05-08T02:25:01.315Z,2.50
2023-05-08T02:26:05.494Z,2.78
2023-05-08T02:27:12.784Z,2.70
2023-05-08T02:28:17.167Z,2.58
2023-05-08T02:29:20.719Z,2.65
2023-05-08T02:30:27.215Z,2.78
2023-05-08T02:31:31.107Z,3.00
2023-05-08T02:32:34.998Z,3.13
2023-05-08T02:33:39.079Z,2.38
2023-05-08T02:34:51.138Z,2.80
2023-05-08T02:36:04.281Z,2.80
2023-05-08T02:37:09.986Z,2.92
2023-05-08T02:38:13.588Z,2.60
2023-05-08T02:39:17.711Z,1.92
2023-05-08T02:40:23.033Z,2.30
2023-05-08T02:41:28.760Z,2.60
2023-05-08T02:42:31.922Z,3.05
2023-05-08T02:43:36.164Z,2.53
2023-05-08T02:44:44.775Z,2.63
2023-05-08T02:45:58.017Z,2.63
2023-05-08T02:47:09.401Z,2.75
2023-05-08T02:48:46.958Z,2.35
2023-05-08T02:49:57.727Z,2.00
2023-05-08T02:51:25.129Z,2.00
2023-05-08T02:52:30.077Z,2.10
2023-05-08T02:53:39.101Z,2.28
2023-05-08T02:54:53.750Z,2.38
2023-05-08T02:55:59.797Z,2.15
2023-05-08T02:57:15.718Z,1.90
2023-05-08T02:58:20.474Z,2.28
2023-05-08T02:59:46.628Z,2.47
2023-05-08T03:01:11.632Z,1.42
2023-05-08T03:02:19.871Z,1.30
2023-05-08T03:03:40.265Z,1.88
2023-05-08T03:04:56.565Z,1.75
2023-05-08T03:06:01.211Z,2.05
2023-05-08T03:07:05.154Z,2.17
2023-05-08T03:08:15.123Z,1.95
2023-05-08T03:09:20.201Z,2.00
2023-05-08T03:10:26.436Z,1.77
2023-05-08T03:11:33.480Z,1.67
2023-05-08T03:12:39.945Z,1.98
2023-05-08T03:13:45.679Z,1.52
2023-05-08T03:15:27.139Z,1.73
2023-05-08T03:16:33.157Z,1.48
2023-05-08T03:17:37.039Z,2.03
2023-05-08T03:18:54.418Z,1.70
2023-05-08T03:20:01.564Z,1.70
2023-05-08T03:21:05.835Z,1.60
2023-05-08T03:22:09.328Z,1.88
2023-05-08T03:23:13.775Z,1.58
2023-05-08T03:24:17.562Z,2.03
2023-05-08T03:25:20.637Z,1.80
2023-05-08T03:26:24.424Z,1.70
2023-05-08T03:27:28.748Z,1.63
2023-05-08T03:28:33.202Z,1.92
2023-05-08T03:29:37.194Z,2.30
2023-05-08T03:30:42.438Z,2.40
2023-05-08T03:31:50.192Z,2.72
2023-05-08T03:32:53.571Z,1.52
2023-05-08T03:33:59.878Z,2.08
2023-05-08T03:35:03.463Z,2.17
2023-05-08T03:36:08.131Z,1.95
2023-05-08T03:37:11.562Z,1.90
2023-05-08T03:38:15.649Z,1.98
2023-05-08T03:39:19.021Z,2.17
2023-05-08T03:40:22.954Z,2.05
2023-05-08T03:41:26.747Z,2.45
2023-05-08T03:42:31.223Z,1.92
2023-05-08T03:43:34.948Z,1.88
2023-05-08T03:44:38.094Z,1.90
2023-05-08T03:45:41.737Z,1.95
2023-05-08T03:46:46.125Z,1.75
2023-05-08T03:47:49.474Z,2.20
2023-05-08T03:48:52.842Z,1.63
2023-05-08T03:49:56.258Z,1.88
2023-05-08T03:51:04.221Z,2.08
2023-05-08T03:52:09.678Z,1.90
2023-05-08T03:53:12.819Z,1.63
2023-05-08T03:54:15.984Z,2.15
2023-05-08T03:55:19.012Z,1.85
2023-05-08T03:56:25.323Z,2.15
2023-05-08T03:57:34.197Z,2.20
2023-05-08T03:58:46.482Z,2.63
2023-05-08T03:59:54.002Z,2.65
2023-05-08T04:01:22.266Z,2.42
2023-05-08T04:02:31.154Z,2.00
2023-05-08T04:03:52.371Z,2.95
2023-05-08T04:05:06.593Z,2.67
2023-05-08T04:06:16.590Z,2.55
2023-05-08T04:07:29.701Z,2.70
2023-05-08T04:08:35.723Z,2.97
2023-05-08T04:09:52.724Z,2.30
2023-05-08T04:11:06.109Z,2.45
2023-05-08T04:12:16.882Z,2.65
2023-05-08T04:13:26.929Z,2.47
2023-05-08T04:14:33.952Z,2.30
2023-05-08T04:15:44.552Z,2.53
2023-05-08T04:16:52.222Z,2.47
2023-05-08T04:17:58.660Z,2.83
2023-05-08T04:19:10.553Z,2.63
2023-05-08T04:20:16.045Z,2.78
2023-05-08T04:21:25.015Z,2.90
2023-05-08T04:22:30.799Z,3.33
2023-05-08T04:23:34.554Z,2.53
2023-05-08T04:24:41.873Z,2.85
2023-05-08T04:25:45.626Z,2.60
2023-05-08T04:26:49.405Z,3.15
2023-05-08T04:27:53.620Z,2.95
2023-05-08T04:28:58.426Z,2.47
2023-05-08T04:30:02.161Z,2.60
2023-05-08T04:31:09.227Z,2.60
2023-05-08T04:32:13.006Z,2.58
2023-05-08T04:33:16.744Z,2.65
2023-05-08T04:34:20.049Z,2.33
2023-05-08T04:35:23.792Z,2.10
2023-05-08T04:36:30.292Z,2.40
2023-05-08T04:37:35.349Z,2.53
2023-05-08T04:38:40.326Z,2.05
2023-05-08T04:39:45.052Z,2.55
2023-05-08T04:40:49.124Z,2.60
2023-05-08T04:41:53.635Z,2.70
2023-05-08T04:42:57.235Z,2.40
2023-05-08T04:44:00.696Z,3.00
2023-05-08T04:45:06.689Z,2.22
2023-05-08T04:46:09.920Z,2.10
2023-05-08T04:47:13.313Z,1.92
2023-05-08T04:48:17.176Z,2.30
2023-05-08T04:49:20.411Z,2.13
2023-05-08T04:50:24.095Z,2.28
2023-05-08T04:51:27.921Z,2.40
2023-05-08T04:52:31.372Z,2.08
2023-05-08T04:53:34.319Z,1.92
2023-05-08T04:54:38.007Z,2.35
2023-05-08T04:55:41.303Z,2.45
2023-05-08T04:56:44.952Z,2.42
2023-05-08T04:57:48.215Z,2.65
2023-05-08T04:58:52.591Z,2.03
2023-05-08T04:59:57.096Z,2.30
2023-05-08T05:01:04.428Z,2.42
2023-05-08T05:02:09.810Z,2.30
2023-05-08T05:03:14.385Z,2.13
2023-05-08T05:04:18.036Z,2.70
2023-05-08T05:05:22.150Z,2.20
2023-05-08T05:06:26.323Z,2.58
2023-05-08T05:07:30.381Z,2.00
2023-05-08T05:08:34.211Z,2.50
2023-05-08T05:09:39.645Z,2.22
2023-05-08T05:10:42.993Z,2.00
2023-05-08T05:11:47.099Z,2.38
2023-05-08T05:12:50.560Z,1.90
2023-05-08T05:13:54.456Z,2.45
2023-05-08T05:14:58.123Z,2.00
2023-05-08T05:16:06.786Z,2.03
2023-05-08T05:17:09.750Z,2.65
2023-05-08T05:18:13.315Z,2.15
2023-05-08T05:19:16.954Z,2.03
2023-05-08T05:20:20.625Z,2.20
2023-05-08T05:21:24.033Z,2.22
2023-05-08T05:22:29.447Z,2.47
2023-05-08T05:23:32.492Z,2.40
2023-05-08T05:24:37.288Z,1.92
2023-05-08T05:25:41.496Z,2.38
2023-05-08T05:26:45.344Z,2.40
2023-05-08T05:27:48.686Z,2.35
2023-05-08T05:28:52.017Z,2.30
2023-05-08T05:29:55.667Z,2.63
2023-05-08T05:30:59.493Z,2.35
2023-05-08T05:32:04.051Z,1.85
2023-05-08T05:33:07.477Z,2.33
2023-05-08T05:34:10.767Z,2.45
2023-05-08T05:35:14.782Z,2.00
2023-05-08T05:36:18.381Z,1.70
2023-05-08T05:37:22.145Z,2.22
2023-05-08T05:38:25.944Z,1.75
2023-05-08T05:39:29.630Z,2.08
2023-05-08T05:40:33.624Z,1.90
2023-05-08T05:41:37.402Z,1.50
2023-05-08T05:42:41.754Z,2.42
2023-05-08T05:43:46.098Z,1.83
2023-05-08T05:44:49.639Z,1.80
2023-05-08T05:45:52.900Z,1.25
2023-05-08T05:46:56.499Z,1.98
2023-05-08T05:48:00.735Z,1.92
2023-05-08T05:49:04.439Z,2.55
2023-05-08T05:50:10.548Z,1.95
2023-05-08T05:51:14.227Z,1.98
2023-05-08T05:52:17.863Z,2.00
2023-05-08T05:53:21.594Z,2.33
2023-05-08T05:54:25.013Z,2.13
2023-05-08T05:55:28.736Z,2.72
2023-05-08T05:56:31.984Z,2.10
2023-05-08T05:57:35.671Z,2.63
2023-05-08T05:58:41.058Z,1.95
2023-05-08T05:59:45.747Z,1.77
2023-05-08T06:00:49.270Z,2.35
2023-05-08T06:01:53.439Z,1.80
2023-05-08T06:02:57.423Z,2.05
2023-05-08T06:04:01.112Z,1.92
2023-05-08T06:05:05.106Z,2.33
2023-05-08T06:06:08.876Z,1.90
2023-05-08T06:07:12.503Z,2.17
2023-05-08T06:08:17.953Z,1.88
2023-05-08T06:09:21.425Z,1.48
2023-05-08T06:10:28.346Z,1.85
2023-05-08T06:11:32.418Z,2.00
2023-05-08T06:12:35.645Z,1.90
2023-05-08T06:13:42.557Z,2.20
2023-05-08T06:14:46.890Z,1.98
2023-05-08T06:15:51.174Z,2.20
2023-05-08T06:16:55.429Z,1.80
2023-05-08T06:17:58.767Z,1.83
2023-05-08T06:19:02.606Z,1.85
2023-05-08T06:20:10.371Z,1.98
2023-05-08T06:21:13.930Z,1.73
2023-05-08T06:22:19.270Z,2.10
2023-05-08T06:23:23.204Z,2.25
2023-05-08T06:24:27.145Z,1.65
2023-05-08T06:25:32.022Z,1.63
2023-05-08T06:26:35.265Z,2.10
2023-05-08T06:27:38.278Z,2.58
2023-05-08T06:28:42.050Z,2.05
2023-05-08T06:29:45.348Z,2.05
2023-05-08T06:30:48.745Z,2.03
2023-05-08T06:31:52.599Z,1.73
2023-05-08T06:32:56.524Z,1.83
2023-05-08T06:33:59.854Z,2.03
2023-05-08T06:35:04.888Z,1.58
2023-05-08T06:36:09.066Z,2.05
2023-05-08T06:37:12.888Z,2.33
2023-05-08T06:38:16.484Z,2.17
2023-05-08T06:39:19.970Z,1.90
2023-05-08T06:40:24.241Z,1.95
2023-05-08T06:41:27.516Z,1.70
2023-05-08T06:42:31.063Z,2.03
2023-05-08T06:43:34.254Z,1.60
2023-05-08T06:44:37.444Z,1.95
2023-05-08T06:45:41.579Z,2.10
2023-05-08T06:46:45.350Z,2.00
2023-05-08T06:47:48.830Z,2.15
2023-05-08T06:48:52.189Z,1.75
2023-05-08T06:49:55.674Z,2.20
2023-05-08T06:50:59.205Z,2.22
2023-05-08T06:52:02.183Z,2.05
2023-05-08T06:53:05.916Z,2.10
2023-05-08T06:54:09.620Z,2.17
2023-05-08T06:55:13.204Z,2.13
2023-05-08T06:56:16.950Z,2.50
2023-05-08T06:57:20.407Z,2.25
2023-05-08T06:58:23.330Z,2.28
2023-05-08T06:59:27.676Z,2.05
2023-05-08T07:00:30.754Z,1.70
2023-05-08T07:01:34.301Z,2.47
2023-05-08T07:02:37.462Z,1.63
2023-05-08T07:03:42.272Z,1.85
2023-05-08T07:04:45.706Z,1.98
2023-05-08T07:05:49.259Z,1.45
2023-05-08T07:06:52.960Z,1.70
2023-05-08T07:07:56.660Z,1.55
2023-05-08T07:08:59.952Z,1.70
2023-05-08T07:10:03.807Z,1.50
2023-05-08T07:11:11.043Z,1.40
2023-05-08T07:12:17.895Z,2.17
2023-05-08T07:13:22.467Z,1.77
2023-05-08T07:14:26.169Z,1.92
2023-05-08T07:15:30.195Z,2.10
2023-05-08T07:16:33.804Z,2.08
2023-05-08T07:17:38.845Z,2.00
2023-05-08T07:18:42.275Z,1.92
2023-05-08T07:19:46.137Z,2.22
2023-05-08T07:20:49.668Z,1.65
2023-05-08T07:21:53.635Z,1.83
2023-05-08T07:22:57.474Z,2.42
2023-05-08T07:24:01.182Z,2.25
2023-05-08T07:25:05.231Z,2.00
2023-05-08T07:26:09.442Z,2.25
2023-05-08T07:27:15.036Z,1.70
2023-05-08T07:28:18.831Z,2.97
2023-05-08T07:29:22.503Z,1.50
2023-05-08T07:30:26.101Z,1.70
2023-05-08T07:31:29.722Z,1.67
2023-05-08T07:32:33.834Z,2.17
2023-05-08T07:33:37.083Z,1.73
2023-05-08T07:34:40.180Z,2.17
2023-05-08T07:35:44.049Z,1.80
2023-05-08T07:36:48.015Z,1.48
2023-05-08T07:37:51.875Z,1.92
2023-05-08T07:38:55.087Z,1.77
2023-05-08T07:39:58.222Z,2.05
2023-05-08T07:41:02.883Z,1.90
2023-05-08T07:42:06.607Z,1.85
2023-05-08T07:43:10.126Z,2.08
2023-05-08T07:44:13.879Z,1.90
2023-05-08T07:45:17.763Z,1.80
2023-05-08T07:46:21.738Z,2.00
2023-05-08T07:47:25.152Z,1.80
2023-05-08T07:48:28.504Z,2.00
2023-05-08T07:49:32.145Z,1.80
2023-05-08T07:50:35.568Z,1.70
2023-05-08T07:51:39.813Z,1.50
2023-05-08T07:52:43.075Z,1.80
2023-05-08T07:53:46.149Z,2.40
2023-05-08T07:54:49.288Z,1.75
2023-05-08T07:55:52.786Z,1.30
2023-05-08T07:56:56.603Z,1.73
2023-05-08T07:58:00.414Z,1.75
2023-05-08T07:59:03.658Z,1.67
2023-05-08T08:00:08.490Z,2.40
2023-05-08T08:01:20.526Z,1.55
2023-05-08T08:02:24.708Z,1.65
2023-05-08T08:03:27.755Z,1.45
2023-05-08T08:04:31.119Z,1.30
2023-05-08T08:05:34.187Z,1.60
2023-05-08T08:06:37.315Z,1.40
2023-05-08T08:07:41.083Z,2.00
2023-05-08T08:08:45.044Z,1.70
2023-05-08T08:09:49.065Z,1.40
2023-05-08T08:10:53.719Z,1.42
2023-05-08T08:11:57.299Z,1.50
2023-05-08T08:13:02.689Z,1.52
2023-05-08T08:14:06.425Z,2.03
2023-05-08T08:15:10.175Z,1.50
2023-05-08T08:16:13.795Z,1.40
2023-05-08T08:17:18.066Z,1.98
2023-05-08T08:18:21.772Z,1.60
2023-05-08T08:19:25.886Z,1.55
2023-05-08T08:20:28.849Z,1.50
2023-05-08T08:21:32.474Z,1.58
2023-05-08T08:22:37.471Z,1.60
2023-05-08T08:23:41.108Z,1.50
2023-05-08T08:24:44.665Z,1.50
2023-05-08T08:25:48.118Z,1.48
2023-05-08T08:26:51.881Z,1.73
2023-05-08T08:27:55.567Z,1.50
2023-05-08T08:28:59.073Z,1.88
2023-05-08T08:30:15.947Z,1.50
2023-05-08T08:31:21.778Z,1.98
2023-05-08T08:32:24.956Z,1.52
2023-05-08T08:33:30.559Z,1.35
2023-05-08T08:34:36.719Z,1.48
2023-05-08T08:35:40.019Z,1.92
2023-05-08T08:36:42.988Z,1.25
2023-05-08T08:37:46.064Z,1.30
2023-05-08T08:38:49.681Z,1.17
2023-05-08T08:39:53.275Z,0.95
2023-05-08T08:40:56.635Z,0.90
2023-05-08T08:42:00.137Z,0.95
2023-05-08T08:43:04.231Z,1.17
2023-05-08T08:44:07.759Z,0.98
2023-05-08T08:45:11.821Z,0.70
2023-05-08T08:46:16.296Z,1.13
2023-05-08T08:47:20.298Z,0.88
2023-05-08T08:48:23.450Z,0.80
2023-05-08T08:49:31.637Z,1.20
2023-05-08T08:50:35.598Z,0.93
2023-05-08T08:51:53.048Z,0.85
2023-05-08T08:53:01.993Z,0.90
2023-05-08T08:54:10.222Z,0.70
2023-05-08T08:55:16.482Z,0.70
2023-05-08T08:56:20.428Z,0.82
2023-05-08T08:57:23.930Z,0.70
2023-05-08T08:58:44.735Z,0.73
2023-05-08T08:59:48.747Z,0.68
2023-05-08T09:00:52.477Z,0.90
2023-05-08T09:01:59.652Z,0.70
2023-05-08T09:03:03.597Z,0.77
2023-05-08T09:04:07.084Z,0.80
2023-05-08T09:05:11.070Z,0.90
2023-05-08T09:06:15.652Z,0.77
2023-05-08T09:07:19.060Z,0.80
2023-05-08T09:08:22.514Z,1.00
2023-05-08T09:09:26.795Z,0.98
2023-05-08T09:10:30.504Z,1.27
2023-05-08T09:11:33.784Z,1.25
2023-05-08T09:12:37.681Z,1.77
2023-05-08T09:13:41.427Z,1.50
2023-05-08T09:14:44.442Z,2.30
2023-05-08T09:15:48.357Z,1.73
2023-05-08T09:16:52.002Z,1.42
2023-05-08T09:17:55.787Z,0.98
2023-05-08T09:18:58.957Z,1.33
2023-05-08T09:20:02.177Z,1.05
2023-05-08T09:21:07.561Z,1.40
2023-05-08T09:22:11.285Z,1.30
2023-05-08T09:23:17.922Z,1.17
2023-05-08T09:24:21.442Z,1.27
2023-05-08T09:25:24.480Z,2.05
2023-05-08T09:26:39.778Z,1.10
2023-05-08T09:27:43.415Z,1.20
2023-05-08T09:28:46.779Z,1.35
2023-05-08T09:30:12.908Z,1.23
2023-05-08T09:31:16.088Z,0.90
2023-05-08T09:32:19.484Z,1.02
2023-05-08T09:33:23.790Z,1.17
2023-05-08T09:34:31.495Z,0.88
2023-05-08T09:35:38.597Z,0.85
2023-05-08T09:36:43.030Z,1.08
2023-05-08T09:37:47.937Z,0.70
2023-05-08T09:38:51.252Z,1.20
2023-05-08T09:39:55.171Z,1.05
2023-05-08T09:41:16.958Z,0.80
2023-05-08T09:42:20.018Z,0.70
2023-05-08T09:43:23.668Z,0.88
2023-05-08T09:44:26.765Z,0.77
2023-05-08T09:45:31.974Z,0.70
2023-05-08T09:46:35.496Z,0.80
2023-05-08T09:47:40.069Z,0.70
2023-05-08T09:48:44.018Z,1.00
2023-05-08T09:50:03.173Z,1.08
2023-05-08T09:51:08.424Z,0.98
2023-05-08T09:52:18.833Z,1.00
2023-05-08T09:53:32.944Z,1.20
2023-05-08T09:54:36.463Z,0.80
2023-05-08T09:55:48.893Z,0.95
2023-05-08T09:56:52.345Z,1.13
2023-05-08T09:57:58.154Z,1.73
2023-05-08T09:59:02.689Z,1.25
2023-05-08T10:00:11.093Z,1.00
2023-05-08T10:01:33.919Z,1.02
2023-05-08T10:02:37.927Z,0.90
2023-05-08T10:03:49.220Z,1.10
2023-05-08T10:04:53.036Z,0.90
2023-05-08T10:05:56.136Z,1.00
2023-05-08T10:06:59.916Z,1.08
2023-05-08T10:08:26.678Z,1.10
2023-05-08T10:09:42.584Z,1.33
2023-05-08T10:10:51.029Z,1.70
2023-05-08T10:11:55.440Z,0.90
2023-05-08T10:12:59.075Z,1.02
2023-05-08T10:14:02.383Z,1.05
2023-05-08T10:15:06.849Z,1.20
2023-05-08T10:16:16.616Z,1.45
2023-05-08T10:18:25.631Z,0.95
2023-05-08T10:19:28.969Z,1.00
2023-05-08T10:20:32.712Z,0.80
2023-05-08T10:21:38.419Z,0.77
2023-05-08T10:22:42.868Z,0.68
2023-05-08T10:23:48.224Z,1.05
2023-05-08T10:24:51.404Z,0.90
2023-05-08T10:25:57.594Z,1.10
2023-05-08T10:27:20.465Z,1.10
2023-05-08T10:28:46.980Z,0.98
2023-05-08T10:29:54.247Z,1.00
2023-05-08T10:30:57.860Z,1.02
2023-05-08T10:32:01.630Z,1.15
2023-05-08T10:33:05.264Z,1.30
2023-05-08T10:34:09.464Z,1.30
2023-05-08T10:35:12.789Z,1.00
2023-05-08T10:36:16.166Z,1.00
2023-05-08T10:37:19.179Z,1.02
2023-05-08T10:38:22.568Z,0.95
2023-05-08T10:39:26.741Z,0.95
2023-05-08T10:40:30.071Z,1.00
2023-05-08T10:41:33.283Z,0.80
2023-05-08T10:42:36.505Z,0.82
2023-05-08T10:43:45.133Z,1.30
2023-05-08T10:44:49.453Z,1.00
2023-05-08T10:45:56.200Z,1.02
2023-05-08T10:47:04.315Z,0.80
2023-05-08T10:48:19.156Z,0.95
2023-05-08T10:49:31.541Z,1.00
2023-05-08T10:50:36.451Z,1.00
2023-05-08T10:51:53.987Z,1.08
2023-05-08T10:53:15.816Z,0.80
2023-05-08T10:54:43.241Z,0.80
2023-05-08T10:55:47.500Z,0.93
2023-05-08T10:56:50.892Z,0.98
2023-05-08T10:58:26.515Z,1.00
2023-05-08T10:59:35.747Z,1.02
2023-05-08T11:00:54.150Z,1.00
2023-05-08T11:02:04.444Z,0.68
2023-05-08T11:03:16.938Z,1.13
2023-05-08T11:04:27.233Z,1.08
2023-05-08T11:05:30.408Z,1.10
2023-05-08T11:06:44.192Z,1.17
2023-05-08T11:07:57.456Z,0.98
2023-05-08T11:09:01.062Z,0.70
2023-05-08T11:10:14.984Z,0.90
2023-05-08T11:11:32.516Z,0.90
2023-05-08T11:12:37.478Z,0.82
2023-05-08T11:13:45.712Z,0.82
2023-05-08T11:15:10.274Z,0.93
2023-05-08T11:16:13.909Z,0.90
2023-05-08T11:17:24.747Z,0.90
2023-05-08T11:18:41.763Z,1.00
2023-05-08T11:20:02.846Z,0.90
2023-05-08T11:21:07.304Z,0.70
2023-05-08T11:22:17.452Z,0.90
2023-05-08T11:23:24.736Z,1.08
2023-05-08T11:24:37.174Z,1.40
2023-05-08T11:25:44.417Z,1.10
2023-05-08T11:26:51.523Z,1.08
2023-05-08T11:27:54.834Z,1.40
2023-05-08T11:28:58.631Z,1.05
2023-05-08T11:30:24.205Z,0.75
2023-05-08T11:31:50.908Z,0.93
2023-05-08T11:33:00.322Z,1.23
2023-05-08T11:34:03.348Z,0.70
2023-05-08T11:35:11.677Z,0.75
2023-05-08T11:36:21.583Z,0.75
2023-05-08T11:37:26.461Z,1.20
2023-05-08T11:38:36.680Z,1.20
2023-05-08T11:39:39.739Z,0.80
2023-05-08T11:40:47.405Z,1.00
2023-05-08T11:41:51.298Z,0.70
2023-05-08T11:42:57.635Z,0.85
2023-05-08T11:44:05.304Z,0.70
2023-05-08T11:45:10.449Z,0.82
2023-05-08T11:46:20.900Z,1.00
2023-05-08T11:47:26.762Z,1.10
2023-05-08T11:48:30.646Z,1.00
2023-05-08T11:49:34.278Z,0.68
2023-05-08T11:50:37.672Z,0.50
2023-05-08T11:51:45.274Z,1.00
2023-05-08T11:52:48.998Z,0.50
2023-05-08T11:53:52.442Z,0.95
2023-05-08T11:54:55.569Z,0.75
2023-05-08T11:55:59.364Z,0.65
2023-05-08T11:57:03.289Z,0.63
2023-05-08T11:58:15.985Z,0.80
2023-05-08T11:59:19.800Z,0.90
2023-05-08T12:00:23.232Z,1.30
2023-05-08T12:01:26.768Z,0.98
2023-05-08T12:02:39.928Z,0.70
2023-05-08T12:03:43.375Z,0.70
2023-05-08T12:04:47.400Z,0.90
2023-05-08T12:05:50.929Z,0.90
2023-05-08T12:06:58.658Z,0.82
2023-05-08T12:08:01.768Z,1.02
2023-05-08T12:09:10.448Z,0.80
2023-05-08T12:10:14.885Z,0.50
2023-05-08T12:11:24.832Z,0.70
2023-05-08T12:12:40.146Z,0.93
2023-05-08T12:13:43.244Z,0.88
2023-05-08T12:14:51.822Z,0.73
2023-05-08T12:15:59.020Z,0.80
2023-05-08T12:17:03.253Z,0.70
2023-05-08T12:18:06.826Z,0.75
2023-05-08T12:19:11.127Z,0.60
2023-05-08T12:20:18.274Z,0.95
2023-05-08T12:21:22.874Z,0.68
2023-05-08T12:22:26.177Z,0.75
2023-05-08T12:23:30.000Z,0.80
2023-05-08T12:24:33.126Z,0.70
2023-05-08T12:25:39.635Z,0.75
2023-05-08T12:26:43.096Z,1.00
2023-05-08T12:27:46.377Z,0.70
2023-05-08T12:28:55.873Z,0.80
2023-05-08T12:29:59.586Z,0.68
2023-05-08T12:31:03.471Z,0.90
2023-05-08T12:32:06.524Z,0.70
2023-05-08T12:33:10.769Z,0.85
2023-05-08T12:34:15.247Z,1.00
2023-05-08T12:35:19.968Z,0.95
2023-05-08T12:36:23.752Z,0.70
2023-05-08T12:37:30.001Z,0.63
2023-05-08T12:38:33.946Z,0.80
2023-05-08T12:39:38.536Z,0.60
2023-05-08T12:40:43.766Z,0.65
2023-05-08T12:41:50.639Z,0.70
2023-05-08T12:42:54.180Z,0.93
2023-05-08T12:43:57.868Z,0.77
2023-05-08T12:45:01.507Z,0.50
2023-05-08T12:46:05.557Z,0.75
2023-05-08T12:47:09.402Z,0.90
2023-05-08T12:48:14.105Z,0.70
2023-05-08T12:49:27.423Z,0.93
2023-05-08T12:50:34.150Z,0.60
2023-05-08T12:51:37.563Z,0.43
2023-05-08T12:52:41.402Z,0.45
2023-05-08T12:53:47.158Z,0.77
2023-05-08T12:54:50.465Z,0.90
2023-05-08T12:55:58.652Z,0.63
2023-05-08T12:57:02.260Z,0.60
2023-05-08T12:58:14.372Z,0.70
2023-05-08T12:59:18.919Z,0.75
2023-05-08T13:00:22.614Z,0.85
2023-05-08T13:01:26.183Z,0.63
2023-05-08T13:02:29.698Z,0.77
2023-05-08T13:03:34.465Z,0.88
2023-05-08T13:04:39.256Z,0.70
2023-05-08T13:05:44.242Z,0.65
2023-05-08T13:06:56.546Z,1.00
2023-05-08T13:08:06.814Z,0.77
2023-05-08T13:09:10.299Z,0.68
2023-05-08T13:10:13.822Z,0.50
2023-05-08T13:11:18.104Z,0.75
2023-05-08T13:12:21.449Z,0.60
2023-05-08T13:13:26.750Z,0.73
2023-05-08T13:14:30.965Z,0.70
2023-05-08T13:15:34.538Z,0.40
2023-05-08T13:16:48.867Z,0.70
2023-05-08T13:17:52.320Z,0.60
2023-05-08T13:18:55.763Z,0.88
2023-05-08T13:19:59.330Z,0.80
2023-05-08T13:21:02.546Z,0.70
2023-05-08T13:22:05.391Z,0.80
2023-05-08T13:23:08.806Z,0.63
2023-05-08T13:24:12.681Z,1.08
2023-05-08T13:25:16.344Z,1.00
2023-05-08T13:26:19.488Z,0.70
2023-05-08T13:27:22.578Z,0.68
2023-05-08T13:28:25.560Z,0.60
2023-05-08T13:29:28.865Z,0.70
2023-05-08T13:30:32.578Z,0.60
2023-05-08T13:31:35.601Z,0.30
2023-05-08T13:32:38.894Z,0.65
2023-05-08T13:33:41.930Z,0.88
2023-05-08T13:34:50.433Z,0.70
2023-05-08T13:35:55.786Z,0.75
2023-05-08T13:36:59.346Z,0.70
2023-05-08T13:38:03.080Z,0.52
2023-05-08T13:39:06.746Z,0.57
2023-05-08T13:40:10.939Z,0.75
2023-05-08T13:41:14.394Z,0.75
2023-05-08T13:42:18.056Z,0.68
2023-05-08T13:43:21.365Z,0.40
2023-05-08T13:44:24.327Z,0.90
2023-05-08T13:45:27.828Z,0.80
2023-05-08T13:46:31.348Z,0.80
2023-05-08T13:47:35.761Z,0.90
2023-05-08T13:48:39.006Z,0.88
2023-05-08T13:49:42.482Z,0.50
2023-05-08T13:50:45.862Z,0.50
2023-05-08T13:51:49.386Z,0.93
2023-05-08T13:52:58.637Z,0.60
2023-05-08T13:54:02.271Z,0.73
2023-05-08T13:55:09.621Z,0.63
2023-05-08T13:56:13.011Z,0.70
2023-05-08T13:57:16.154Z,0.60
2023-05-08T13:58:19.528Z,0.60
2023-05-08T13:59:23.199Z,0.50
2023-05-08T14:00:28.049Z,0.80
2023-05-08T14:01:31.535Z,0.70
2023-05-08T14:02:35.258Z,0.85
2023-05-08T14:03:38.528Z,1.00
2023-05-08T14:04:42.106Z,0.93
2023-05-08T14:05:45.482Z,1.10
2023-05-08T14:06:48.779Z,0.65
2023-05-08T14:07:52.363Z,1.08
2023-05-08T14:08:57.179Z,1.10
2023-05-08T14:10:01.362Z,0.75
2023-05-08T14:11:04.886Z,0.50
2023-05-08T14:12:08.213Z,0.75
2023-05-08T14:13:12.031Z,0.55
2023-05-08T14:14:15.682Z,0.55
2023-05-08T14:15:19.330Z,0.45
2023-05-08T14:16:23.030Z,0.80
2023-05-08T14:17:26.378Z,1.15
2023-05-08T14:18:29.315Z,0.70
2023-05-08T14:19:32.657Z,0.55
2023-05-08T14:20:35.589Z,0.60
2023-05-08T14:21:39.071Z,0.60
2023-05-08T14:22:42.316Z,0.65
2023-05-08T14:23:45.988Z,0.68
2023-05-08T14:24:49.431Z,0.75
2023-05-08T14:25:52.525Z,0.70
2023-05-08T14:26:56.196Z,0.95
2023-05-08T14:27:59.916Z,0.70
2023-05-08T14:29:02.961Z,0.50
2023-05-08T14:30:06.948Z,0.75
2023-05-08T14:31:10.143Z,0.50
2023-05-08T14:32:13.346Z,0.82
2023-05-08T14:33:19.141Z,0.90
2023-05-08T14:34:22.584Z,0.80
2023-05-08T14:35:26.276Z,0.70
2023-05-08T14:36:29.448Z,0.82
2023-05-08T14:37:32.760Z,0.65
2023-05-08T14:38:36.122Z,0.60
2023-05-08T14:39:39.280Z,0.77
2023-05-08T14:40:42.935Z,0.68